Time;durP1;ratioP1;P1;durP2;ratioP2;P2;SDS_P1;SDS_P2;PMS_P1;PMS_P2;Temp;Humidity;BMP_temperature;BMP_pressure;BME280_temperature;BME280_humidity;BME280_pressure;Samples;Min_cycle;Max_cycle;Signal;HPM_P1;HPM_P2
2023/06/26 00:00:44;;;;;;;8.50;7.10;;;;;;;19.12;72.55;101025.00;5004232;28;20222;-71
2023/06/26 00:03:14;;;;;;;7.87;6.97;;;;;;;19.09;72.95;101023.84;5000834;28;20205;-71
2023/06/26 00:05:41;;;;;;;8.53;7.17;;;;;;;19.04;72.91;101034.13;4998166;28;20733;-72
2023/06/26 00:08:07;;;;;;;9.20;7.03;;;;;;;19.00;72.97;101025.31;5003977;28;20726;-72
2023/06/26 00:10:34;;;;;;;8.50;7.30;;;;;;;18.96;72.79;101022.59;5001089;28;20296;-72
2023/06/26 00:13:01;;;;;;;8.27;6.93;;;;;;;18.93;72.96;101023.34;4993064;28;20208;-70
2023/06/26 00:15:31;;;;;;;8.27;6.33;;;;;;;18.89;73.06;101022.53;4995418;28;20552;-72
2023/06/26 00:17:57;;;;;;;8.07;6.83;;;;;;;18.85;73.23;101029.78;5012131;28;20228;-72
2023/06/26 00:20:24;;;;;;;8.37;6.57;;;;;;;18.81;73.47;101020.16;5002355;28;20557;-71
2023/06/26 00:22:51;;;;;;;7.83;7.03;;;;;;;18.78;73.83;101027.03;4998362;28;20207;-71
2023/06/26 00:25:18;;;;;;;8.17;6.47;;;;;;;18.74;73.70;101020.13;5005310;28;20208;-71
2023/06/26 00:27:44;;;;;;;8.67;7.03;;;;;;;18.70;74.05;101022.75;5004931;28;20221;-71
2023/06/26 00:30:13;;;;;;;10.13;6.97;;;;;;;18.66;73.95;101024.63;4999770;28;20228;-71
2023/06/26 00:32:39;;;;;;;9.87;7.77;;;;;;;18.63;73.76;101020.00;4995851;28;20228;-71
2023/06/26 00:35:06;;;;;;;10.57;7.70;;;;;;;18.60;74.22;101019.97;4991290;28;20205;-72
2023/06/26 00:37:33;;;;;;;9.87;6.87;;;;;;;18.58;74.14;101014.25;5000563;28;20270;-71
2023/06/26 00:40:00;;;;;;;8.53;7.23;;;;;;;18.54;74.00;101019.56;5001441;28;20727;-71
2023/06/26 00:42:26;;;;;;;9.77;7.80;;;;;;;18.52;74.00;101016.47;4994997;28;20259;-71
2023/06/26 00:44:53;;;;;;;8.73;7.47;;;;;;;18.50;74.22;101015.28;5004199;28;20197;-71
2023/06/26 00:47:21;;;;;;;8.90;6.80;;;;;;;18.47;74.61;101024.81;4996406;28;20220;-72
2023/06/26 00:49:48;;;;;;;9.00;7.40;;;;;;;18.46;74.76;101019.84;4984112;28;20280;-71
2023/06/26 00:52:14;;;;;;;8.67;7.77;;;;;;;18.44;74.95;101016.75;5000133;28;20455;-71
2023/06/26 00:54:41;;;;;;;9.83;7.47;;;;;;;18.42;75.31;101013.69;4991274;28;20296;-71
2023/06/26 00:57:07;;;;;;;10.53;7.47;;;;;;;18.41;75.07;101012.91;4991961;28;20211;-72
2023/06/26 00:59:35;;;;;;;10.93;7.27;;;;;;;18.41;75.01;101002.22;4999733;28;20216;-71
2023/06/26 01:02:02;;;;;;;7.47;6.73;;;;;;;18.41;75.77;101007.56;4997087;28;20634;-72
2023/06/26 01:04:32;;;;;;;8.13;6.70;;;;;;;18.41;75.65;101001.44;4992153;28;20708;-71
2023/06/26 01:07:00;;;;;;;8.07;7.10;;;;;;;18.41;75.93;101004.91;5001053;28;20687;-71
2023/06/26 01:09:26;;;;;;;9.80;7.10;;;;;;;18.43;76.02;101001.88;5004515;28;20292;-72
2023/06/26 01:11:53;;;;;;;8.20;7.20;;;;;;;18.43;76.48;100997.25;4982049;28;20199;-71
2023/06/26 01:14:19;;;;;;;9.57;7.70;;;;;;;18.44;76.21;100998.03;5001577;28;20447;-72
2023/06/26 01:16:47;;;;;;;8.33;7.00;;;;;;;18.43;76.11;100994.59;4994854;28;20567;-71
2023/06/26 01:19:24;;;;;;;8.13;7.13;;;;;;;18.44;76.28;100996.16;4992171;28;20353;-71
2023/06/26 01:21:56;;;;;;;8.57;7.00;;;;;;;18.43;75.91;100989.25;5002363;28;20283;-72
2023/06/26 01:24:28;;;;;;;11.37;7.33;;;;;;;18.44;75.87;100992.69;4991652;28;20193;-72
2023/06/26 01:26:56;;;;;;;10.60;7.17;;;;;;;18.45;76.01;100992.34;4994614;28;20299;-71
2023/06/26 01:29:24;;;;;;;8.53;7.17;;;;;;;18.45;76.11;100995.00;4991475;28;20232;-71
2023/06/26 01:31:50;;;;;;;8.83;7.27;;;;;;;18.47;76.22;100989.31;4993048;28;20237;-72
2023/06/26 01:34:18;;;;;;;11.17;7.77;;;;;;;18.47;75.89;100992.72;4993659;28;20205;-71
2023/06/26 01:36:45;;;;;;;9.13;7.87;;;;;;;18.48;76.52;100990.84;4992334;28;20212;-71
2023/06/26 01:39:11;;;;;;;9.87;6.97;;;;;;;18.45;76.20;100987.00;4994270;28;20225;-71
2023/06/26 01:41:38;;;;;;;9.20;7.50;;;;;;;18.46;75.98;100988.53;5000328;28;20252;-72
2023/06/26 01:44:18;;;;;;;7.70;6.90;;;;;;;18.46;76.26;100979.72;5002150;28;20555;-71
2023/06/26 01:46:53;;;;;;;8.00;7.20;;;;;;;18.44;76.28;100984.69;4994267;28;20206;-71
2023/06/26 01:49:25;;;;;;;7.73;6.93;;;;;;;18.41;76.30;100983.50;4990810;28;20209;-71
2023/06/26 01:51:59;;;;;;;9.73;7.47;;;;;;;18.39;76.34;100979.66;4990634;28;20223;-71
2023/06/26 01:54:30;;;;;;;10.83;7.87;;;;;;;18.38;76.25;100975.44;5015695;28;20209;-71
2023/06/26 01:56:59;;;;;;;9.67;8.23;;;;;;;18.35;75.97;100976.97;4989215;28;20575;-71
2023/06/26 01:59:30;;;;;;;8.83;7.17;;;;;;;18.32;75.91;100971.59;4998778;28;20212;-71
2023/06/26 02:01:56;;;;;;;12.00;7.47;;;;;;;18.29;75.84;100977.63;4995737;28;20645;-71
2023/06/26 02:04:22;;;;;;;8.40;7.27;;;;;;;18.26;76.21;100967.69;4995806;28;20280;-71
2023/06/26 02:06:49;;;;;;;8.37;7.47;;;;;;;18.22;76.17;100966.88;4996866;28;20328;-71
2023/06/26 02:09:15;;;;;;;10.07;7.00;;;;;;;18.18;76.10;100976.75;4992673;28;20221;-71
2023/06/26 02:11:42;;;;;;;11.43;7.50;;;;;;;18.14;75.96;100974.03;4999658;28;20251;-71
2023/06/26 02:14:09;;;;;;;11.27;7.30;;;;;;;18.10;75.77;100965.22;4998109;28;20577;-71
2023/06/26 02:16:36;;;;;;;8.17;6.80;;;;;;;18.07;76.10;100968.59;5000890;28;20201;-71
2023/06/26 02:19:03;;;;;;;9.87;7.77;;;;;;;18.03;76.31;100964.38;4989017;28;20701;-71
2023/06/26 02:21:29;;;;;;;11.70;7.67;;;;;;;18.00;75.98;100959.75;5005162;28;20225;-71
2023/06/26 02:23:56;;;;;;;9.17;7.37;;;;;;;17.96;76.35;100959.69;4994763;28;20559;-71
2023/06/26 02:26:22;;;;;;;9.63;7.70;;;;;;;17.93;76.33;100962.34;4990451;28;20292;-71
2023/06/26 02:28:49;;;;;;;10.93;7.83;;;;;;;17.89;76.33;100956.97;4988556;28;20243;-72
2023/06/26 02:31:15;;;;;;;8.70;7.37;;;;;;;17.86;76.28;100965.69;4985526;28;20212;-72
2023/06/26 02:33:45;;;;;;;10.43;7.67;;;;;;;17.83;76.53;100965.66;4988128;28;20496;-71
2023/06/26 02:36:11;;;;;;;8.87;7.33;;;;;;;17.77;76.81;100975.13;4986944;28;20205;-72
2023/06/26 02:38:40;;;;;;;8.67;6.77;;;;;;;17.74;77.09;100976.63;4994222;28;20223;-71
2023/06/26 02:41:06;;;;;;;8.87;7.60;;;;;;;17.72;77.15;100972.78;4989540;28;20295;-71
2023/06/26 02:43:33;;;;;;;10.63;7.27;;;;;;;17.70;77.16;100970.47;5007431;28;20208;-71
2023/06/26 02:46:00;;;;;;;8.57;7.20;;;;;;;17.66;77.20;100972.34;4993481;28;20211;-71
2023/06/26 02:48:27;;;;;;;8.70;7.47;;;;;;;17.64;77.38;100963.91;4995307;28;20222;-72
2023/06/26 02:50:54;;;;;;;9.83;7.60;;;;;;;17.62;77.25;100968.06;4990118;28;20212;-72
2023/06/26 02:53:26;;;;;;;9.13;7.37;;;;;;;17.59;77.47;100964.22;4990592;28;20236;-72
2023/06/26 02:55:53;;;;;;;8.50;7.30;;;;;;;17.58;77.59;100967.25;5002571;28;20286;-71
2023/06/26 02:58:20;;;;;;;8.50;7.17;;;;;;;17.55;77.70;100963.41;4981069;28;20228;-71
2023/06/26 03:00:48;;;;;;;10.90;8.23;;;;;;;17.53;77.96;100962.22;5015165;28;20226;-71
2023/06/26 03:03:16;;;;;;;10.70;7.63;;;;;;;17.52;78.19;100969.50;4983784;28;20201;-71
2023/06/26 03:05:43;;;;;;;10.83;7.80;;;;;;;17.51;78.03;100965.28;4980706;28;20233;-71
2023/06/26 03:08:11;;;;;;;10.37;7.73;;;;;;;17.52;78.17;100968.72;4982338;28;20304;-71
2023/06/26 03:10:38;;;;;;;11.20;7.83;;;;;;;17.53;78.48;100967.56;5001483;28;20317;-71
2023/06/26 03:13:05;;;;;;;11.47;8.70;;;;;;;17.54;78.54;100967.22;4993698;28;20220;-72
2023/06/26 03:15:32;;;;;;;12.07;8.53;;;;;;;17.57;78.80;100963.84;4990686;28;20197;-71
2023/06/26 03:17:58;;;;;;;11.70;8.37;;;;;;;17.59;78.67;100961.56;4995993;28;20224;-71
2023/06/26 03:20:27;;;;;;;8.70;7.63;;;;;;;17.63;78.78;100962.38;4999928;28;20212;-72
2023/06/26 03:22:55;;;;;;;11.07;8.40;;;;;;;17.69;78.77;100968.19;4995068;28;20663;-71
2023/06/26 03:25:24;;;;;;;9.00;7.90;;;;;;;17.74;78.85;100957.94;5004275;28;20209;-71
2023/06/26 03:27:59;;;;;;;11.47;8.13;;;;;;;17.80;78.85;100966.41;4994487;28;20225;-72
2023/06/26 03:30:26;;;;;;;9.97;8.23;;;;;;;17.88;78.42;100960.00;4996888;28;20297;-72
2023/06/26 03:32:56;;;;;;;10.77;8.93;;;;;;;17.95;78.64;100962.75;4998736;28;20671;-72
2023/06/26 03:35:23;;;;;;;12.67;8.73;;;;;;;18.00;78.64;100965.13;5007655;28;20233;-71
2023/06/26 03:37:50;;;;;;;9.17;7.80;;;;;;;18.05;78.71;100956.78;5003820;28;20231;-71
2023/06/26 03:40:16;;;;;;;9.67;7.87;;;;;;;18.13;78.53;100959.16;4997686;28;20312;-72
2023/06/26 03:42:46;;;;;;;9.87;8.23;;;;;;;18.20;78.45;100953.06;4997622;28;20201;-72
2023/06/26 03:45:12;;;;;;;9.67;8.13;;;;;;;18.25;78.62;100950.06;4999248;28;20259;-71
2023/06/26 03:47:40;;;;;;;10.10;7.30;;;;;;;18.30;78.38;100950.53;4992402;28;20692;-71
2023/06/26 03:50:07;;;;;;;10.13;7.90;;;;;;;18.35;78.56;100949.44;4994258;28;20712;-71
2023/06/26 03:52:34;;;;;;;12.03;7.90;;;;;;;18.40;78.52;100949.09;4986199;28;20627;-71
2023/06/26 03:55:02;;;;;;;8.90;7.50;;;;;;;18.48;78.39;100950.72;4993829;28;20599;-71
2023/06/26 03:57:29;;;;;;;8.77;7.40;;;;;;;18.53;78.67;100953.06;4987748;28;20952;-72
2023/06/26 03:59:56;;;;;;;8.17;6.97;;;;;;;18.58;79.00;100950.03;4991013;28;20232;-71
2023/06/26 04:02:23;;;;;;;9.13;8.03;;;;;;;18.63;79.03;100947.78;4988586;28;20222;-71
2023/06/26 04:04:49;;;;;;;11.87;7.77;;;;;;;18.69;78.71;100948.22;4989913;28;20206;-72
2023/06/26 04:07:16;;;;;;;9.70;7.53;;;;;;;18.74;78.64;100943.28;4993770;28;20292;-71
2023/06/26 04:09:42;;;;;;;11.87;8.60;;;;;;;18.80;78.12;100952.53;4992139;28;20284;-71
2023/06/26 04:12:09;;;;;;;13.40;8.60;;;;;;;18.87;77.72;100955.25;4985110;28;20321;-71
2023/06/26 04:14:35;;;;;;;8.93;7.93;;;;;;;18.94;77.28;100946.50;4999490;28;20192;-72
2023/06/26 04:17:03;;;;;;;9.00;7.60;;;;;;;18.99;77.29;100946.91;4990831;28;20205;-71
2023/06/26 04:19:29;;;;;;;9.90;8.10;;;;;;;19.05;77.10;100948.09;4995623;28;20216;-71
2023/06/26 04:21:56;;;;;;;8.63;7.47;;;;;;;19.13;77.32;100941.66;4999258;28;20217;-71
2023/06/26 04:24:23;;;;;;;9.77;8.03;;;;;;;19.21;77.26;100945.94;4991960;28;20207;-72
2023/06/26 04:26:49;;;;;;;12.13;8.37;;;;;;;19.27;76.44;100943.66;4994927;28;20193;-72
2023/06/26 04:29:17;;;;;;;10.87;9.07;;;;;;;19.35;76.45;100942.56;4995394;28;20221;-71
2023/06/26 04:31:46;;;;;;;9.63;7.93;;;;;;;19.43;76.62;100939.56;4996581;28;20193;-71
2023/06/26 04:34:14;;;;;;;11.13;8.70;;;;;;;19.51;76.84;100938.41;4997578;28;20830;-72
2023/06/26 04:36:40;;;;;;;9.83;8.80;;;;;;;19.60;76.84;100940.75;4995310;28;20213;-71
2023/06/26 04:39:06;;;;;;;9.20;8.27;;;;;;;19.69;76.90;100941.19;4997037;28;20228;-71
2023/06/26 04:41:33;;;;;;;9.87;8.50;;;;;;;19.77;76.28;100942.75;5005061;28;20220;-71
2023/06/26 04:43:59;;;;;;;8.90;8.03;;;;;;;19.85;76.37;100930.88;4995783;28;20208;-72
2023/06/26 04:46:27;;;;;;;9.40;7.70;;;;;;;19.94;76.05;100942.81;4989413;28;20627;-72
2023/06/26 04:48:54;;;;;;;9.50;7.67;;;;;;;20.02;75.92;100938.22;4994094;28;20559;-72
2023/06/26 04:51:21;;;;;;;9.90;7.77;;;;;;;20.10;75.33;100939.78;4994787;28;20209;-72
2023/06/26 04:53:48;;;;;;;8.90;7.13;;;;;;;20.18;75.24;100938.69;4999987;28;20209;-72
2023/06/26 04:56:14;;;;;;;9.40;8.10;;;;;;;20.25;75.17;100936.78;4992380;28;20202;-71
2023/06/26 04:58:40;;;;;;;8.20;7.37;;;;;;;20.33;74.83;100942.91;4990845;28;20217;-71
2023/06/26 05:01:07;;;;;;;10.17;8.03;;;;;;;20.41;74.63;100933.69;4999072;28;20217;-72
2023/06/26 05:03:35;;;;;;;8.40;7.50;;;;;;;20.49;74.21;100935.25;4996275;28;20671;-72
2023/06/26 05:06:01;;;;;;;7.73;6.93;;;;;;;20.57;73.90;100934.09;5000380;28;20207;-72
2023/06/26 05:08:29;;;;;;;9.93;7.30;;;;;;;20.64;73.60;100934.84;4993979;28;20235;-72
2023/06/26 05:10:57;;;;;;;8.53;7.20;;;;;;;20.72;72.98;100936.41;4994172;28;20196;-72
2023/06/26 05:13:24;;;;;;;7.70;6.90;;;;;;;20.80;72.87;100935.22;4989900;28;20237;-72
2023/06/26 05:15:51;;;;;;;9.20;7.00;;;;;;;20.88;72.27;100934.09;4993840;28;20197;-72
2023/06/26 05:18:17;;;;;;;7.93;6.80;;;;;;;20.98;71.49;100937.91;4990991;28;20217;-71
2023/06/26 05:20:44;;;;;;;8.23;7.23;;;;;;;21.10;71.21;100940.19;4996226;28;20625;-72
2023/06/26 05:23:12;;;;;;;8.87;7.23;;;;;;;21.21;70.23;100939.03;5004238;28;20205;-72
2023/06/26 05:25:41;;;;;;;8.10;6.90;;;;;;;21.34;70.10;100934.00;4993221;28;20603;-72
2023/06/26 05:28:10;;;;;;;7.70;6.63;;;;;;;21.44;69.56;100938.56;4990847;28;20228;-72
2023/06/26 05:30:37;;;;;;;9.00;7.07;;;;;;;21.53;69.24;100931.63;4990573;28;20209;-72
2023/06/26 05:33:05;;;;;;;7.83;7.03;;;;;;;21.64;68.48;100935.06;5002236;28;20205;-71
2023/06/26 05:35:32;;;;;;;8.90;6.90;;;;;;;21.72;68.86;100933.88;5000405;28;20205;-71
2023/06/26 05:37:59;;;;;;;7.43;6.63;;;;;;;21.80;68.32;100926.53;4992908;28;20213;-72
2023/06/26 05:40:26;;;;;;;7.83;6.43;;;;;;;21.88;68.15;100928.78;4990280;28;20661;-72
2023/06/26 05:42:55;;;;;;;8.03;6.67;;;;;;;21.95;67.70;100917.25;4997161;28;20704;-72
2023/06/26 05:45:21;;;;;;;6.90;6.20;;;;;;;22.05;67.61;100921.78;4998331;28;20193;-71
2023/06/26 05:47:49;;;;;;;8.27;6.57;;;;;;;22.10;66.92;100916.75;4988040;28;20233;-72
2023/06/26 05:50:19;;;;;;;7.93;6.70;;;;;;;22.18;66.22;100920.94;4990567;28;20553;-72
2023/06/26 05:52:46;;;;;;;7.60;6.80;;;;;;;22.25;66.13;100917.44;4992691;28;20200;-72
2023/06/26 05:55:14;;;;;;;9.67;6.30;;;;;;;22.31;66.38;100913.91;4998531;28;20201;-72
2023/06/26 05:57:41;;;;;;;7.30;6.03;;;;;;;22.39;65.89;100914.63;4998754;28;20591;-72
2023/06/26 06:00:10;;;;;;;9.27;6.97;;;;;;;22.46;65.41;100917.28;5002416;28;20197;-72
2023/06/26 06:02:43;;;;;;;8.70;6.40;;;;;;;22.54;66.02;100910.69;4991350;28;20208;-72
2023/06/26 06:05:10;;;;;;;6.47;5.87;;;;;;;22.59;65.27;100911.03;4994038;28;20276;-72
2023/06/26 06:07:36;;;;;;;6.57;5.83;;;;;;;22.68;65.12;100911.34;4993799;28;20229;-72
2023/06/26 06:10:04;;;;;;;7.03;5.70;;;;;;;22.76;65.27;100901.25;4990337;28;20201;-72
2023/06/26 06:12:30;;;;;;;9.63;6.68;;;;;;;22.85;66.00;100905.00;4997239;28;20205;-72
2023/06/26 06:14:57;;;;;;;9.00;6.05;;;;;;;22.91;64.66;100900.72;4990933;28;20206;-72
2023/06/26 06:17:25;;;;;;;7.25;6.25;;;;;;;23.00;64.33;100906.41;5002107;28;20224;-72
2023/06/26 06:19:51;;;;;;;7.50;5.78;;;;;;;23.07;64.08;100906.31;4997761;28;20560;-72
2023/06/26 06:22:18;;;;;;;6.53;5.30;;;;;;;23.16;64.99;100895.81;5004272;28;20671;-72
2023/06/26 06:24:45;;;;;;;5.93;5.35;;;;;;;23.27;63.35;100892.28;4989820;28;20217;-72
2023/06/26 06:27:11;;;;;;;6.95;5.32;;;;;;;23.33;62.82;100886.03;4992988;28;20215;-72
2023/06/26 06:29:37;;;;;;;6.75;5.78;;;;;;;23.41;63.36;100876.69;4992300;28;20212;-72
2023/06/26 06:32:04;;;;;;;7.47;4.85;;;;;;;23.48;61.85;100884.69;4992384;28;20210;-72
2023/06/26 06:34:32;;;;;;;7.55;5.47;;;;;;;23.57;62.48;100882.25;4993198;28;20218;-71
2023/06/26 06:36:58;;;;;;;5.30;4.80;;;;;;;23.65;62.49;100884.44;4993279;28;20200;-72
2023/06/26 06:39:25;;;;;;;5.93;4.50;;;;;;;23.75;61.86;100882.78;4992101;28;20225;-71
2023/06/26 06:41:51;;;;;;;6.63;5.22;;;;;;;23.84;63.10;100883.03;5000789;28;20224;-72
2023/06/26 06:44:17;;;;;;;4.80;4.30;;;;;;;23.92;61.77;100873.69;4992134;28;20205;-72
2023/06/26 06:46:44;;;;;;;8.02;4.60;;;;;;;24.01;60.22;100879.34;4997193;28;20209;-72
2023/06/26 06:49:10;;;;;;;6.00;4.75;;;;;;;24.10;61.75;100868.78;4992381;28;20221;-72
2023/06/26 06:51:38;;;;;;;6.05;4.55;;;;;;;24.16;59.49;100872.56;4992090;28;20240;-72
2023/06/26 06:54:04;;;;;;;5.18;4.68;;;;;;;24.27;60.26;100872.38;4989882;28;20193;-72
2023/06/26 06:56:31;;;;;;;6.22;4.88;;;;;;;24.35;58.35;100869.16;4991755;28;20215;-72
2023/06/26 06:58:57;;;;;;;6.45;5.30;;;;;;;24.43;59.39;100867.88;4998066;28;20217;-72
2023/06/26 07:01:23;;;;;;;5.30;4.63;;;;;;;24.51;57.56;100869.25;4995692;28;20221;-72
2023/06/26 07:03:50;;;;;;;5.72;4.97;;;;;;;24.61;58.00;100875.69;4995613;28;20213;-72
2023/06/26 07:06:16;;;;;;;7.20;4.38;;;;;;;24.70;57.87;100870.53;4990997;28;20292;-72
2023/06/26 07:08:44;;;;;;;5.03;4.30;;;;;;;24.79;57.83;100868.81;4993861;28;20224;-72
2023/06/26 07:11:10;;;;;;;5.90;4.88;;;;;;;24.91;57.66;100862.03;4995568;28;20204;-72
2023/06/26 07:13:37;;;;;;;7.25;4.93;;;;;;;25.01;56.72;100867.22;4990424;28;20560;-72
2023/06/26 07:16:04;;;;;;;5.93;4.65;;;;;;;25.11;58.08;100866.25;4997200;28;20204;-72
2023/06/26 07:18:30;;;;;;;6.85;4.93;;;;;;;25.19;57.88;100867.66;4988918;28;20283;-72
2023/06/26 07:20:56;;;;;;;6.43;5.07;;;;;;;25.27;59.26;100863.63;4991376;28;20205;-72
2023/06/26 07:23:23;;;;;;;7.60;4.90;;;;;;;25.37;56.40;100859.16;4988303;28;20591;-72
2023/06/26 07:25:50;;;;;;;5.78;4.40;;;;;;;25.45;55.76;100857.84;4992916;28;20299;-72
2023/06/26 07:28:17;;;;;;;6.75;4.70;;;;;;;25.52;56.78;100857.69;4999911;28;20244;-72
2023/06/26 07:30:43;;;;;;;5.45;4.68;;;;;;;25.60;53.59;100850.97;4994406;28;20321;-72
2023/06/26 07:33:09;;;;;;;6.65;4.50;;;;;;;25.69;54.27;100862.72;4991762;28;20197;-72
2023/06/26 07:35:36;;;;;;;4.70;4.00;;;;;;;25.77;56.40;100864.09;4995808;28;20213;-72
2023/06/26 07:38:02;;;;;;;5.35;4.20;;;;;;;25.86;55.43;100855.38;4993229;28;20719;-72
2023/06/26 07:40:28;;;;;;;5.13;4.40;;;;;;;25.95;54.16;100858.31;4987163;28;20198;-72
2023/06/26 07:42:58;;;;;;;4.57;4.03;;;;;;;26.02;52.98;100861.59;4991649;28;20228;-72
2023/06/26 07:45:24;;;;;;;6.82;4.88;;;;;;;26.09;52.83;100852.53;4993371;28;20232;-72
2023/06/26 07:47:50;;;;;;;5.88;4.43;;;;;;;26.16;52.15;100849.69;4997078;28;20235;-72
2023/06/26 07:50:21;;;;;;;6.57;4.35;;;;;;;26.21;52.67;100858.03;4988060;28;20212;-72
2023/06/26 07:52:47;;;;;;;4.38;3.97;;;;;;;26.27;51.71;100850.91;4997098;28;20699;-72
2023/06/26 07:55:14;;;;;;;5.47;3.85;;;;;;;26.32;49.94;100844.25;5002594;28;20193;-72
2023/06/26 07:57:40;;;;;;;5.40;4.13;;;;;;;26.38;51.01;100843.31;4993315;28;20601;-72
2023/06/26 08:00:10;;;;;;;4.38;3.42;;;;;;;26.43;51.46;100842.78;4998820;28;20232;-71
2023/06/26 08:02:41;;;;;;;4.70;4.07;;;;;;;26.50;48.97;100836.41;4993387;28;20208;-72
2023/06/26 08:05:08;;;;;;;5.57;4.50;;;;;;;26.55;50.85;100828.56;4988533;28;20210;-71
2023/06/26 08:07:34;;;;;;;6.97;4.40;;;;;;;26.64;51.51;100838.78;4995186;28;20223;-71
2023/06/26 08:10:00;;;;;;;6.32;4.07;;;;;;;26.73;53.77;100834.25;4991149;28;20201;-71
2023/06/26 08:12:27;;;;;;;5.05;3.95;;;;;;;26.83;52.76;100830.50;4997678;28;20197;-72
2023/06/26 08:14:53;;;;;;;4.50;4.10;;;;;;;26.90;51.38;100830.31;4987248;28;20208;-72
2023/06/26 08:17:21;;;;;;;6.20;4.20;;;;;;;26.99;50.38;100827.72;4998852;28;20575;-72
2023/06/26 08:19:47;;;;;;;4.07;3.67;;;;;;;27.08;50.79;100829.81;4996085;28;20216;-72
2023/06/26 08:22:14;;;;;;;4.30;3.90;;;;;;;27.15;47.86;100826.91;4988302;28;20205;-72
2023/06/26 08:24:40;;;;;;;4.78;3.97;;;;;;;27.21;47.77;100825.97;4990932;28;20212;-72
2023/06/26 08:27:07;;;;;;;4.93;3.83;;;;;;;27.29;49.75;100819.13;4991669;28;20197;-72
2023/06/26 08:29:34;;;;;;;4.25;3.80;;;;;;;27.35;46.89;100814.69;4995546;28;20255;-72
2023/06/26 08:32:02;;;;;;;4.00;3.60;;;;;;;27.42;47.14;100813.72;4991516;28;20430;-71
2023/06/26 08:34:29;;;;;;;4.35;3.80;;;;;;;27.47;47.44;100821.31;4991095;28;20668;-71
2023/06/26 08:36:56;;;;;;;4.30;3.65;;;;;;;27.53;45.66;100816.84;4989614;28;20193;-72
2023/06/26 08:39:22;;;;;;;4.15;3.75;;;;;;;27.58;46.96;100814.38;4992566;28;20719;-72
2023/06/26 08:41:48;;;;;;;6.30;3.90;;;;;;;27.64;47.37;100817.28;5000726;28;20244;-72
2023/06/26 08:44:15;;;;;;;4.50;3.63;;;;;;;27.69;45.80;100814.03;4994871;28;20196;-71
2023/06/26 08:46:42;;;;;;;4.10;3.70;;;;;;;27.75;46.64;100815.00;4998534;28;20209;-72
2023/06/26 08:49:15;;;;;;;4.72;3.40;;;;;;;27.83;46.78;100811.66;4990799;28;20286;-72
2023/06/26 08:51:50;;;;;;;3.50;3.03;;;;;;;27.88;43.03;100813.06;4996215;28;20213;-72
2023/06/26 08:54:20;;;;;;;3.35;3.05;;;;;;;27.91;42.56;100802.09;4996980;28;20204;-72
2023/06/26 08:56:50;;;;;;;4.25;3.20;;;;;;;27.95;45.29;100804.69;4994703;28;20572;-72
2023/06/26 08:59:17;;;;;;;3.97;3.40;;;;;;;27.97;45.93;100808.47;4988056;28;20595;-72
2023/06/26 09:01:43;;;;;;;6.15;3.58;;;;;;;28.03;46.80;100797.84;4994617;28;20668;-72
2023/06/26 09:04:10;;;;;;;6.32;3.78;;;;;;;28.07;43.41;100799.22;4989446;28;20726;-72
2023/06/26 09:06:36;;;;;;;4.60;3.67;;;;;;;28.12;45.84;100792.50;4990686;28;20208;-72
2023/06/26 09:09:04;;;;;;;4.00;3.17;;;;;;;28.17;43.13;100789.97;4993468;28;20252;-72
2023/06/26 09:11:31;;;;;;;5.95;5.05;;;;;;;28.22;44.19;100786.69;4996714;28;20205;-72
2023/06/26 09:13:57;;;;;;;8.15;5.70;;;;;;;28.29;44.03;100797.34;4987576;28;20209;-72
2023/06/26 09:16:26;;;;;;;4.00;3.60;;;;;;;28.31;43.10;100789.50;4988355;28;20432;-72
2023/06/26 09:18:53;;;;;;;6.40;4.60;;;;;;;28.38;43.59;100789.25;4988659;28;20230;-72
2023/06/26 09:21:19;;;;;;;4.22;3.40;;;;;;;28.43;43.13;100780.56;4991191;28;20200;-72
2023/06/26 09:23:46;;;;;;;4.60;3.42;;;;;;;28.54;43.26;100793.78;4992866;28;20875;-72
2023/06/26 09:26:15;;;;;;;4.30;3.47;;;;;;;28.56;41.36;100781.25;4991749;28;20205;-72
2023/06/26 09:28:43;;;;;;;4.10;3.30;;;;;;;28.60;40.20;100770.25;4991329;28;20553;-72
2023/06/26 09:31:10;;;;;;;4.00;3.25;;;;;;;28.65;40.68;100770.44;4996581;28;20558;-72
2023/06/26 09:33:37;;;;;;;3.90;3.10;;;;;;;28.72;42.35;100772.16;4992205;28;20232;-72
2023/06/26 09:36:06;;;;;;;3.85;3.03;;;;;;;28.79;41.45;100767.22;4990959;28;20680;-72
2023/06/26 09:38:34;;;;;;;3.88;3.20;;;;;;;28.83;40.69;100767.84;4994267;28;20260;-72
2023/06/26 09:41:01;;;;;;;3.38;3.08;;;;;;;28.87;40.00;100779.34;4991512;28;20225;-72
2023/06/26 09:43:30;;;;;;;4.82;3.60;;;;;;;28.91;40.76;100771.06;4996021;28;20212;-72
2023/06/26 09:45:58;;;;;;;4.25;3.40;;;;;;;28.93;41.49;100772.13;4994848;28;20306;-72
2023/06/26 09:48:25;;;;;;;4.22;3.83;;;;;;;28.96;40.55;100773.94;4985033;28;20221;-73
2023/06/26 09:50:51;;;;;;;8.75;3.40;;;;;;;29.01;39.61;100778.81;4984954;28;20213;-72
2023/06/26 09:53:18;;;;;;;3.50;3.15;;;;;;;29.04;38.79;100763.59;4997416;28;20201;-72
2023/06/26 09:55:45;;;;;;;3.45;3.00;;;;;;;29.10;41.45;100765.28;4993642;28;20673;-72
2023/06/26 09:58:14;;;;;;;4.18;3.38;;;;;;;29.13;41.23;100761.69;4990731;28;20221;-72
2023/06/26 10:00:43;;;;;;;4.40;3.40;;;;;;;29.17;42.66;100765.03;4988724;28;20283;-72
2023/06/26 10:03:09;;;;;;;4.07;3.67;;;;;;;29.22;42.19;100752.81;4993732;28;20217;-72
2023/06/26 10:05:36;;;;;;;3.60;3.30;;;;;;;29.27;39.47;100746.78;4986951;28;20197;-72
2023/06/26 10:08:03;;;;;;;4.18;3.70;;;;;;;29.31;39.91;100744.69;4991224;28;20224;-72
2023/06/26 10:10:32;;;;;;;4.38;3.67;;;;;;;29.31;40.16;100742.69;4993186;28;20205;-72
2023/06/26 10:13:01;;;;;;;6.10;3.30;;;;;;;29.38;39.54;100738.94;4994523;28;20206;-72
2023/06/26 10:15:29;;;;;;;3.60;3.20;;;;;;;29.46;41.04;100730.03;4995911;28;20189;-72
2023/06/26 10:17:57;;;;;;;4.30;3.30;;;;;;;29.51;41.87;100726.00;4987900;28;20230;-72
2023/06/26 10:20:25;;;;;;;5.43;3.72;;;;;;;29.59;39.67;100732.69;4993660;28;20304;-72
2023/06/26 10:22:52;;;;;;;6.03;3.38;;;;;;;29.63;40.23;100719.69;4996927;28;20221;-72
2023/06/26 10:25:20;;;;;;;3.67;3.38;;;;;;;29.70;40.41;100720.16;4993148;28;20555;-72
2023/06/26 10:27:50;;;;;;;6.35;3.67;;;;;;;29.73;37.61;100723.94;4993634;28;20229;-72
2023/06/26 10:30:21;;;;;;;4.15;3.03;;;;;;;29.80;41.00;100715.47;4991608;28;20565;-72
2023/06/26 10:32:49;;;;;;;4.30;3.63;;;;;;;29.87;40.87;100713.19;4993188;28;20197;-72
2023/06/26 10:35:17;;;;;;;4.55;3.22;;;;;;;29.94;37.28;100710.16;4989376;28;20235;-72
2023/06/26 10:37:45;;;;;;;4.90;3.47;;;;;;;30.05;38.79;100707.00;4988373;28;20297;-72
2023/06/26 10:40:12;;;;;;;3.90;3.50;;;;;;;30.13;39.20;100702.78;4991887;28;20201;-72
2023/06/26 10:42:40;;;;;;;3.63;3.33;;;;;;;30.23;38.10;100707.78;4986895;28;20220;-72
2023/06/26 10:45:12;;;;;;;4.03;3.60;;;;;;;30.33;38.32;100703.81;4989996;28;20194;-72
2023/06/26 10:47:41;;;;;;;4.18;3.58;;;;;;;30.43;36.85;100699.09;4987291;28;20228;-71
2023/06/26 10:50:24;;;;;;;4.82;3.70;;;;;;;30.53;35.96;100697.88;4994569;28;20284;-72
2023/06/26 10:53:08;;;;;;;4.80;3.58;;;;;;;30.56;36.93;100697.72;4993601;28;20627;-72
2023/06/26 10:55:35;;;;;;;4.30;3.45;;;;;;;30.65;38.08;100692.25;4992040;28;20284;-72
2023/06/26 10:58:02;;;;;;;4.78;3.67;;;;;;;30.70;38.14;100697.09;4987534;28;20224;-72
2023/06/26 11:00:28;;;;;;;4.95;3.17;;;;;;;30.60;35.89;100695.59;4987874;28;20221;-72
2023/06/26 11:02:55;;;;;;;5.25;3.28;;;;;;;30.42;35.50;100689.44;4988694;28;20209;-72
2023/06/26 11:05:27;;;;;;;4.90;3.22;;;;;;;30.34;35.38;100691.72;4993153;28;20197;-72
2023/06/26 11:08:07;;;;;;;3.70;3.30;;;;;;;30.15;36.47;100689.47;4990081;28;20578;-73
2023/06/26 11:10:49;;;;;;;4.10;3.70;;;;;;;30.07;37.05;100685.50;4986637;28;20287;-72
2023/06/26 11:13:18;;;;;;;3.50;3.20;;;;;;;29.93;35.44;100673.25;4993083;28;20204;-72
2023/06/26 11:15:44;;;;;;;4.30;3.78;;;;;;;29.99;39.18;100676.88;4987755;28;20763;-72
2023/06/26 11:18:11;;;;;;;4.28;3.50;;;;;;;30.05;37.75;100671.59;4984328;28;20611;-71
2023/06/26 11:20:39;;;;;;;4.32;3.70;;;;;;;30.08;35.89;100665.25;4985951;28;20205;-72
2023/06/26 11:23:08;;;;;;;4.18;3.78;;;;;;;30.13;37.41;100662.69;4990742;28;20220;-72
2023/06/26 11:25:36;;;;;;;3.75;3.42;;;;;;;30.13;38.13;100654.50;4989437;28;20228;-72